createdAt,value
2022-12-03T00:04:33.151Z,16.08
2022-12-03T00:09:36.739Z,16.75
2022-12-03T00:14:44.617Z,19.05
2022-12-03T00:19:52.844Z,16.35
2022-12-03T00:24:57.109Z,14.88
2022-12-03T00:30:00.412Z,9.15
2022-12-03T00:35:06.480Z,15.65
2022-12-03T00:40:11.805Z,16.50
2022-12-03T00:45:15.943Z,16.10
2022-12-03T00:50:21.250Z,7.88
2022-12-03T00:55:24.711Z,13.77
2022-12-03T01:00:28.101Z,8.25
2022-12-03T01:05:33.469Z,12.45
2022-12-03T01:10:38.486Z,11.20
2022-12-03T01:15:42.353Z,12.07
2022-12-03T01:20:47.237Z,11.50
2022-12-03T01:25:53.124Z,11.25
2022-12-03T01:31:13.915Z,13.13
2022-12-03T01:36:19.750Z,13.02
2022-12-03T01:41:23.218Z,9.57
2022-12-03T01:46:28.430Z,14.05
2022-12-03T01:51:36.504Z,13.27
2022-12-03T01:56:41.429Z,14.18
2022-12-03T02:01:44.956Z,8.88
2022-12-03T02:06:49.905Z,11.40
2022-12-03T02:11:53.715Z,15.02
2022-12-03T02:16:57.172Z,15.80
2022-12-03T02:22:06.176Z,8.82
2022-12-03T02:27:11.104Z,13.23
2022-12-03T02:32:14.716Z,15.27
2022-12-03T02:37:19.505Z,11.80
2022-12-03T02:42:39.687Z,12.40
2022-12-03T02:52:47.880Z,13.57
2022-12-03T02:57:52.789Z,10.25
2022-12-03T03:02:56.081Z,13.30
2022-12-03T03:08:02.203Z,15.75
2022-12-03T03:13:09.137Z,13.55
2022-12-03T03:18:13.005Z,9.50
2022-12-03T03:23:17.852Z,13.85
2022-12-03T03:28:22.707Z,12.70
2022-12-03T03:33:26.297Z,13.75
2022-12-03T03:38:29.951Z,11.98
2022-12-03T03:43:35.248Z,15.80
2022-12-03T03:48:41.045Z,15.85
2022-12-03T03:53:47.912Z,15.75
2022-12-03T03:58:52.509Z,16.05
2022-12-03T04:03:57.403Z,15.38
2022-12-03T04:09:01.385Z,13.23
2022-12-03T04:14:07.108Z,8.38
2022-12-03T04:19:10.554Z,17.85
2022-12-03T04:24:14.639Z,11.88
2022-12-03T04:29:19.697Z,17.52
2022-12-03T04:34:41.528Z,19.00
2022-12-03T04:39:45.268Z,18.40
2022-12-03T04:44:50.023Z,18.85
2022-12-03T04:49:53.370Z,17.02
2022-12-03T04:54:59.041Z,21.23
2022-12-03T05:00:03.855Z,18.38
2022-12-03T05:05:08.560Z,22.75
2022-12-03T05:10:13.442Z,19.50
2022-12-03T05:15:18.129Z,19.52
2022-12-03T05:20:39.760Z,21.08
2022-12-03T05:25:43.256Z,17.05
2022-12-03T05:30:51.000Z,21.95
2022-12-03T05:35:54.434Z,25.08
2022-12-03T05:40:57.736Z,20.63
2022-12-03T05:46:02.413Z,24.00
2022-12-03T05:51:07.405Z,25.02
2022-12-03T05:56:13.996Z,22.25
2022-12-03T06:01:18.524Z,24.67
2022-12-03T06:06:21.839Z,30.30
2022-12-03T06:11:26.156Z,29.67
2022-12-03T06:16:30.821Z,25.50
2022-12-03T06:21:34.972Z,28.08
2022-12-03T06:26:41.665Z,27.73
2022-12-03T06:31:46.626Z,29.02
2022-12-03T06:36:52.477Z,29.92
2022-12-03T06:41:57.764Z,21.20
2022-12-03T06:47:02.731Z,28.80
2022-12-03T06:52:08.421Z,31.88
2022-12-03T06:57:16.642Z,28.90
2022-12-03T07:02:21.439Z,24.70
2022-12-03T07:07:26.127Z,28.00
2022-12-03T07:12:29.668Z,34.53
2022-12-03T07:17:36.347Z,28.15
2022-12-03T07:22:39.792Z,34.88
2022-12-03T07:27:43.477Z,29.30
2022-12-03T07:32:49.236Z,29.85
2022-12-03T07:37:55.468Z,34.35
2022-12-03T07:42:58.626Z,33.67
2022-12-03T07:48:03.670Z,31.08
2022-12-03T07:53:09.177Z,30.35
2022-12-03T07:58:13.472Z,33.40
2022-12-03T08:03:18.012Z,33.35
2022-12-03T08:08:23.274Z,24.17
2022-12-03T08:13:27.470Z,30.48
2022-12-03T08:18:34.226Z,25.80
2022-12-03T08:23:37.648Z,19.35
2022-12-03T08:28:44.443Z,33.05
2022-12-03T08:33:49.737Z,25.05
2022-12-03T08:38:53.971Z,25.88
2022-12-03T08:43:59.012Z,31.92
2022-12-03T08:49:04.352Z,35.92
2022-12-03T08:54:13.665Z,34.40
2022-12-03T08:59:34.651Z,32.83
2022-12-03T09:04:42.221Z,29.65
2022-12-03T09:09:46.011Z,36.35
2022-12-03T09:14:51.353Z,29.55
2022-12-03T09:19:56.936Z,29.80
2022-12-03T09:25:00.146Z,33.78
2022-12-03T09:30:03.659Z,23.63
2022-12-03T09:35:09.494Z,31.13
2022-12-03T09:40:14.078Z,30.95
2022-12-03T09:45:19.642Z,32.22
2022-12-03T09:50:25.856Z,36.25
2022-12-03T09:55:30.834Z,27.58
2022-12-03T10:00:34.417Z,25.00
2022-12-03T10:05:45.200Z,27.38
2022-12-03T10:10:56.528Z,30.83
2022-12-03T10:16:01.375Z,27.58
2022-12-03T10:21:17.774Z,28.33
2022-12-03T10:26:23.369Z,29.65
2022-12-03T10:31:37.025Z,25.90
2022-12-03T10:36:42.745Z,26.10
2022-12-03T10:41:47.736Z,25.38
2022-12-03T10:47:08.465Z,24.33
2022-12-03T10:52:25.700Z,24.92
2022-12-03T10:57:29.614Z,28.27
2022-12-03T11:02:32.967Z,16.13
2022-12-03T11:07:38.300Z,31.15
2022-12-03T11:12:42.010Z,26.48
2022-12-03T11:17:49.876Z,17.25
2022-12-03T11:22:57.057Z,26.52
2022-12-03T11:28:38.532Z,25.10
2022-12-03T11:33:44.430Z,26.33
2022-12-03T11:38:54.116Z,19.08
2022-12-03T11:49:34.593Z,28.33
2022-12-03T11:54:39.584Z,35.67
2022-12-03T12:00:00.799Z,31.70
2022-12-03T12:05:18.666Z,33.22
2022-12-03T12:10:48.548Z,31.80
2022-12-03T12:15:54.352Z,32.00
2022-12-03T12:21:00.299Z,25.73
2022-12-03T12:26:12.614Z,35.85
2022-12-03T12:31:17.373Z,34.08
2022-12-03T12:36:22.042Z,17.50
2022-12-03T12:41:28.570Z,29.00
2022-12-03T12:46:47.836Z,19.42
2022-12-03T12:51:52.018Z,24.05
2022-12-03T12:56:57.302Z,27.40
2022-12-03T13:02:04.534Z,13.52
2022-12-03T13:07:14.034Z,26.27
2022-12-03T13:12:24.039Z,20.17
2022-12-03T13:17:27.682Z,18.05
2022-12-03T13:22:31.470Z,19.33
2022-12-03T13:27:36.492Z,22.17
2022-12-03T13:32:45.306Z,29.83
2022-12-03T13:37:49.438Z,21.70
2022-12-03T13:42:56.794Z,27.17
2022-12-03T13:48:01.319Z,32.17
2022-12-03T13:53:08.530Z,17.88
2022-12-03T13:58:13.610Z,27.70
2022-12-03T14:03:17.638Z,20.73
2022-12-03T14:08:22.110Z,23.90
2022-12-03T14:13:27.666Z,26.30
2022-12-03T14:18:31.301Z,28.63
2022-12-03T14:23:34.704Z,26.90
2022-12-03T14:28:39.327Z,25.83
2022-12-03T14:33:42.958Z,24.65
2022-12-03T14:38:46.863Z,23.88
2022-12-03T14:43:55.168Z,29.70
2022-12-03T14:48:59.961Z,23.02
2022-12-03T14:54:05.829Z,13.68
2022-12-03T14:59:10.862Z,25.02
2022-12-03T15:04:14.461Z,26.73
2022-12-03T15:09:20.935Z,30.30
2022-12-03T15:14:26.117Z,25.75
2022-12-03T15:19:29.630Z,25.63
2022-12-03T15:24:33.119Z,28.10
2022-12-03T15:29:38.114Z,25.85
2022-12-03T15:34:45.507Z,28.58
2022-12-03T15:39:49.231Z,25.23
2022-12-03T15:45:15.355Z,30.42
2022-12-03T15:50:26.245Z,14.90
2022-12-03T15:55:39.353Z,29.58
2022-12-03T16:00:51.494Z,27.30
2022-12-03T16:06:19.734Z,28.55
2022-12-03T16:11:23.385Z,31.60
2022-12-03T16:16:30.491Z,32.97
2022-12-03T16:21:56.548Z,32.08
2022-12-03T16:28:16.743Z,28.85
2022-12-03T16:33:28.133Z,33.53
2022-12-03T16:38:33.897Z,33.80
2022-12-03T16:43:39.747Z,32.72
2022-12-03T16:48:45.378Z,33.78
2022-12-03T16:53:48.715Z,36.47
2022-12-03T16:58:53.015Z,35.97
2022-12-03T17:03:59.482Z,39.33
2022-12-03T17:09:06.500Z,42.20
2022-12-03T17:14:10.007Z,37.78
2022-12-03T17:19:15.549Z,38.42
2022-12-03T17:24:19.233Z,41.78
2022-12-03T17:29:23.232Z,41.75
2022-12-03T17:34:32.821Z,37.40
2022-12-03T17:39:36.700Z,38.50
2022-12-03T17:44:41.762Z,39.22
2022-12-03T17:49:48.993Z,20.80
2022-12-03T17:55:10.399Z,37.65
2022-12-03T18:00:15.976Z,44.60
2022-12-03T18:05:21.218Z,40.95
2022-12-03T18:10:24.817Z,39.17
2022-12-03T18:15:31.007Z,36.33
2022-12-03T18:20:36.538Z,31.88
2022-12-03T18:25:41.415Z,37.65
2022-12-03T18:30:51.991Z,42.65
2022-12-03T18:35:59.278Z,37.75
2022-12-03T18:41:03.106Z,38.35
2022-12-03T18:46:31.160Z,35.00
2022-12-03T18:51:36.971Z,67.38
2022-12-03T18:56:41.278Z,41.30
2022-12-03T19:01:45.114Z,31.80
2022-12-03T19:06:51.387Z,38.92
2022-12-03T19:11:54.544Z,38.42
2022-12-03T19:16:58.433Z,45.85
2022-12-03T19:22:03.493Z,36.08
2022-12-03T19:27:08.049Z,40.08
2022-12-03T19:32:11.241Z,31.05
2022-12-03T19:37:16.498Z,39.08
2022-12-03T19:42:20.303Z,34.72
2022-12-03T19:47:25.348Z,31.63
2022-12-03T19:52:30.162Z,45.08
2022-12-03T19:57:34.593Z,29.30
2022-12-03T20:02:38.697Z,33.97
2022-12-03T20:07:44.678Z,38.00
2022-12-03T20:12:49.259Z,36.00
2022-12-03T20:17:54.304Z,34.00
2022-12-03T20:22:59.095Z,32.30
2022-12-03T20:28:03.634Z,41.10
2022-12-03T20:33:11.921Z,35.78
2022-12-03T20:38:18.775Z,34.15
2022-12-03T20:43:24.066Z,39.95
2022-12-03T20:48:27.757Z,38.25
2022-12-03T20:53:32.990Z,34.00
2022-12-03T20:58:37.578Z,31.98
2022-12-03T21:03:42.557Z,37.17
2022-12-03T21:08:47.411Z,35.55
2022-12-03T21:13:51.430Z,38.40
2022-12-03T21:18:54.775Z,31.42
2022-12-03T21:23:59.962Z,35.35
2022-12-03T21:29:03.664Z,32.72
2022-12-03T21:34:17.002Z,33.60
2022-12-03T21:39:23.795Z,35.30
2022-12-03T21:44:27.892Z,37.63
2022-12-03T21:49:31.674Z,39.60
2022-12-03T21:54:37.497Z,34.83
2022-12-03T21:59:40.862Z,33.92
2022-12-03T22:04:44.802Z,31.40
2022-12-03T22:09:50.964Z,43.40
2022-12-03T22:14:57.128Z,30.73
2022-12-03T22:20:00.620Z,35.63
2022-12-03T22:25:06.369Z,29.95
2022-12-03T22:30:11.168Z,14.43
2022-12-03T22:35:16.032Z,43.78
2022-12-03T22:40:21.551Z,36.13
2022-12-03T22:45:25.239Z,25.27
2022-12-03T22:50:28.641Z,34.22
2022-12-03T22:55:33.605Z,36.40
2022-12-03T23:00:39.034Z,47.92
2022-12-03T23:05:42.233Z,32.47
2022-12-03T23:10:48.177Z,36.03
2022-12-03T23:15:52.591Z,29.20
2022-12-03T23:20:58.301Z,26.75
2022-12-03T23:26:06.224Z,33.88
2022-12-03T23:31:18.081Z,16.75
2022-12-03T23:36:22.573Z,17.90
2022-12-03T23:41:28.267Z,26.17
2022-12-03T23:46:31.496Z,23.45
2022-12-03T23:51:34.863Z,23.08
2022-12-03T23:56:43.985Z,25.70
